createdAt,value
2022-12-16T00:02:57.102Z,96.49
2022-12-16T00:08:28.875Z,94.94
2022-12-16T00:14:00.530Z,95.78
2022-12-16T00:19:32.380Z,95.80
2022-12-16T00:25:04.179Z,96.09
2022-12-16T00:30:42.005Z,96.05
2022-12-16T00:36:19.789Z,95.77
2022-12-16T00:41:51.737Z,95.89
2022-12-16T00:47:23.399Z,95.95
2022-12-16T00:53:01.111Z,95.94
2022-12-16T00:58:39.138Z,95.85
2022-12-16T01:04:16.730Z,95.86
2022-12-16T01:09:54.424Z,96.11
2022-12-16T01:15:32.389Z,96.41
2022-12-16T01:21:06.172Z,96.31
2022-12-16T01:26:37.780Z,96.35
2022-12-16T01:32:15.309Z,96.33
2022-12-16T01:37:53.230Z,96.54
2022-12-16T01:43:31.075Z,96.65
2022-12-16T01:49:08.617Z,96.40
2022-12-16T02:00:15.661Z,96.62
2022-12-16T02:05:53.434Z,96.43
2022-12-16T02:11:30.784Z,96.28
2022-12-16T02:17:08.538Z,96.24
2022-12-16T02:22:40.391Z,96.71
2022-12-16T02:33:47.528Z,96.33
2022-12-16T02:39:19.472Z,96.46
2022-12-16T02:44:57.167Z,96.06
2022-12-16T02:50:34.670Z,95.59
2022-12-16T03:04:09.859Z,95.29
2022-12-16T03:09:47.234Z,95.05
2022-12-16T03:15:19.242Z,95.24
2022-12-16T03:20:56.912Z,95.38
2022-12-16T03:26:28.654Z,95.22
2022-12-16T03:37:30.127Z,95.06
2022-12-16T03:43:02.006Z,94.82
2022-12-16T03:48:34.145Z,94.87
2022-12-16T03:54:05.948Z,94.88
2022-12-16T03:59:43.787Z,94.33
2022-12-16T04:05:15.621Z,94.28
2022-12-16T04:10:53.325Z,94.30
2022-12-16T04:16:30.981Z,93.81
2022-12-16T04:22:02.832Z,93.60
2022-12-16T04:27:34.355Z,93.15
2022-12-16T04:33:06.394Z,93.32
2022-12-16T04:38:38.182Z,92.95
2022-12-16T04:44:10.148Z,92.81
2022-12-16T04:49:41.720Z,93.08
2022-12-16T04:55:13.748Z,92.77
2022-12-16T05:00:45.498Z,92.68
2022-12-16T05:06:17.271Z,92.52
2022-12-16T05:11:49.121Z,91.81
2022-12-16T05:17:20.842Z,92.33
2022-12-16T05:22:52.375Z,92.39
2022-12-16T05:28:24.332Z,92.36
2022-12-16T05:33:56.337Z,92.39
2022-12-16T05:39:28.241Z,92.16
2022-12-16T05:45:00.007Z,92.38
2022-12-16T05:50:32.283Z,92.33
2022-12-16T05:56:04.740Z,92.33
2022-12-16T06:01:36.795Z,92.47
2022-12-16T06:07:08.512Z,92.54
2022-12-16T06:12:40.100Z,92.52
2022-12-16T06:18:12.203Z,92.51
2022-12-16T06:23:44.267Z,92.51
2022-12-16T06:29:15.926Z,92.58
2022-12-16T06:34:47.758Z,92.41
2022-12-16T06:40:19.696Z,92.41
2022-12-16T06:45:51.759Z,92.43
2022-12-16T06:51:23.317Z,92.39
2022-12-16T06:56:55.445Z,92.28
2022-12-16T07:02:27.461Z,92.39
2022-12-16T07:07:59.383Z,92.27
2022-12-16T07:13:31.767Z,92.18
2022-12-16T07:19:03.056Z,92.38
2022-12-16T07:24:34.159Z,92.31
2022-12-16T07:30:05.912Z,92.31
2022-12-16T07:35:37.619Z,92.31
2022-12-16T07:41:09.752Z,92.35
2022-12-16T07:46:41.558Z,92.10
2022-12-16T07:52:13.292Z,92.15
2022-12-16T07:57:44.930Z,91.90
2022-12-16T08:03:16.853Z,91.77
2022-12-16T08:08:48.809Z,91.78
2022-12-16T08:14:20.786Z,91.87
2022-12-16T08:19:58.444Z,91.42
2022-12-16T08:25:30.261Z,91.13
2022-12-16T08:31:02.154Z,91.10
2022-12-16T08:36:34.059Z,90.96
2022-12-16T08:42:05.512Z,90.96
2022-12-16T08:47:37.540Z,91.05
2022-12-16T08:53:09.515Z,91.12
2022-12-16T08:55:32.731Z,91.02
2022-12-16T09:01:07.313Z,90.52
2022-12-16T09:06:40.430Z,90.51
2022-12-16T09:12:08.806Z,90.46
2022-12-16T09:17:40.569Z,90.46
2022-12-16T09:23:12.583Z,89.44
2022-12-16T09:28:44.418Z,89.78
2022-12-16T09:34:16.173Z,89.70
2022-12-16T09:39:48.012Z,89.21
2022-12-16T09:45:19.812Z,89.16
2022-12-16T09:50:51.522Z,88.80
2022-12-16T09:56:23.535Z,88.57
2022-12-16T10:01:55.535Z,88.49
2022-12-16T10:07:27.132Z,88.67
2022-12-16T10:12:58.798Z,88.90
2022-12-16T10:24:00.448Z,87.74
2022-12-16T10:29:32.640Z,87.68
2022-12-16T10:35:04.341Z,87.82
2022-12-16T10:40:36.259Z,87.76
2022-12-16T10:46:07.976Z,87.03
2022-12-16T10:51:39.713Z,87.57
2022-12-16T10:57:11.586Z,87.19
2022-12-16T11:02:43.533Z,86.15
2022-12-16T11:13:45.156Z,85.63
2022-12-16T11:19:16.915Z,85.73
2022-12-16T11:24:48.613Z,85.47
2022-12-16T11:30:20.481Z,85.35
2022-12-16T11:35:52.307Z,85.43
2022-12-16T11:41:24.129Z,85.41
2022-12-16T11:46:56.030Z,85.26
2022-12-16T11:52:36.822Z,84.68
2022-12-16T11:57:59.965Z,84.48
2022-12-16T12:03:32.200Z,84.48
2022-12-16T12:09:03.575Z,84.62
2022-12-16T12:14:35.261Z,84.92
2022-12-16T12:20:12.884Z,85.30
2022-12-16T12:25:44.650Z,85.00
2022-12-16T12:31:16.258Z,85.53
2022-12-16T12:36:47.871Z,85.23
2022-12-16T12:42:19.775Z,85.00
2022-12-16T12:47:52.656Z,85.49
2022-12-16T12:53:24.360Z,85.21
2022-12-16T12:58:56.165Z,84.90
2022-12-16T13:06:48.854Z,84.99
2022-12-16T13:17:50.377Z,85.08
2022-12-16T13:23:22.482Z,85.26
2022-12-16T13:28:54.288Z,85.14
2022-12-16T13:34:26.011Z,85.04
2022-12-16T13:39:57.976Z,85.43
2022-12-16T13:50:59.671Z,86.17
2022-12-16T13:56:31.488Z,86.19
2022-12-16T14:02:03.489Z,86.00
2022-12-16T14:07:34.890Z,86.18
2022-12-16T14:13:06.889Z,86.24
2022-12-16T14:18:43.411Z,85.90
2022-12-16T14:29:40.396Z,86.26
2022-12-16T14:35:12.422Z,86.12
2022-12-16T14:40:44.174Z,86.59
2022-12-16T14:46:15.902Z,86.59
2022-12-16T14:51:47.800Z,87.02
2022-12-16T14:57:20.012Z,87.38
2022-12-16T15:02:52.077Z,88.04
2022-12-16T15:08:24.146Z,87.94
2022-12-16T15:14:03.115Z,88.20
2022-12-16T15:19:27.714Z,88.57
2022-12-16T15:24:59.653Z,88.93
2022-12-16T15:30:31.520Z,89.19
2022-12-16T15:36:03.097Z,89.13
2022-12-16T15:41:35.040Z,89.30
2022-12-16T15:47:12.740Z,89.42
2022-12-16T15:52:44.598Z,89.74
2022-12-16T15:58:16.677Z,89.76
2022-12-16T16:03:48.444Z,89.92
2022-12-16T16:09:20.142Z,89.85
2022-12-16T16:14:52.282Z,89.98
2022-12-16T16:20:23.963Z,90.01
2022-12-16T16:25:59.261Z,90.07
2022-12-16T16:31:27.490Z,90.30
2022-12-16T16:37:01.208Z,90.14
2022-12-16T16:42:33.427Z,90.25
2022-12-16T16:53:37.573Z,90.33
2022-12-16T16:59:09.479Z,90.21
2022-12-16T17:04:41.208Z,90.27
2022-12-16T17:10:13.159Z,90.47
2022-12-16T17:15:44.996Z,90.43
2022-12-16T17:21:16.883Z,90.39
2022-12-16T17:26:48.397Z,90.44
2022-12-16T17:32:20.533Z,90.47
2022-12-16T17:37:52.222Z,90.74
2022-12-16T17:43:24.004Z,90.79
2022-12-16T17:48:56.044Z,90.72
2022-12-16T17:54:29.703Z,90.84
2022-12-16T17:59:59.720Z,91.28
2022-12-16T18:05:38.721Z,91.37
2022-12-16T18:11:03.296Z,91.37
2022-12-16T18:16:35.199Z,91.46
2022-12-16T18:22:07.106Z,91.37
2022-12-16T18:27:38.839Z,91.40
2022-12-16T18:38:40.156Z,91.22
2022-12-16T18:44:11.992Z,91.32
2022-12-16T18:49:43.516Z,90.86
2022-12-16T18:55:15.433Z,91.00
2022-12-16T19:00:47.019Z,91.17
2022-12-16T19:06:18.528Z,90.86
2022-12-16T19:11:50.315Z,90.98
2022-12-16T19:17:22.485Z,90.67
2022-12-16T19:22:54.863Z,90.37
2022-12-16T19:28:26.051Z,90.61
2022-12-16T19:33:58.153Z,90.59
2022-12-16T19:39:29.435Z,90.70
2022-12-16T19:45:01.264Z,90.69
2022-12-16T19:50:32.756Z,90.59
2022-12-16T19:56:04.353Z,90.34
2022-12-16T20:01:36.548Z,90.48
2022-12-16T20:07:08.122Z,90.57
2022-12-16T20:12:39.656Z,90.44
2022-12-16T20:18:11.710Z,90.07
2022-12-16T20:23:43.632Z,90.07
2022-12-16T20:29:15.198Z,89.79
2022-12-16T20:34:46.991Z,89.74
2022-12-16T20:40:18.991Z,89.56
2022-12-16T20:45:50.527Z,89.62
2022-12-16T20:51:26.624Z,89.50
2022-12-16T20:56:54.792Z,89.58
2022-12-16T21:02:32.880Z,89.68
2022-12-16T21:07:58.183Z,89.41
2022-12-16T21:13:30.043Z,89.14
2022-12-16T21:24:33.826Z,88.56
2022-12-16T21:30:05.567Z,89.13
2022-12-16T21:35:37.469Z,89.05
2022-12-16T21:41:11.496Z,88.89
2022-12-16T21:46:43.171Z,89.06
2022-12-16T21:52:15.132Z,89.14
2022-12-16T21:57:47.177Z,89.19
2022-12-16T22:03:19.890Z,89.18
2022-12-16T22:08:51.812Z,89.04
2022-12-16T22:14:23.567Z,88.88
2022-12-16T22:19:56.151Z,88.61
2022-12-16T22:25:27.439Z,88.58
2022-12-16T22:30:59.338Z,88.37
2022-12-16T22:36:31.611Z,88.56
2022-12-16T22:42:03.538Z,88.50
2022-12-16T22:47:35.742Z,88.35
2022-12-16T22:53:07.897Z,88.39
2022-12-16T22:58:39.619Z,88.15
2022-12-16T23:04:12.004Z,87.93
2022-12-16T23:09:43.647Z,88.20
2022-12-16T23:15:15.453Z,88.13
2022-12-16T23:23:07.770Z,87.87
2022-12-16T23:28:39.286Z,87.65
2022-12-16T23:34:11.154Z,87.51
2022-12-16T23:39:42.695Z,87.48
2022-12-16T23:45:14.140Z,87.67
2022-12-16T23:50:45.663Z,87.60
2022-12-16T23:56:17.251Z,87.70
